Time;durP1;ratioP1;P1;durP2;ratioP2;P2;SDS_P1;SDS_P2;PMS_P1;PMS_P2;Temp;Humidity;BMP_temperature;BMP_pressure;BME280_temperature;BME280_humidity;BME280_pressure;Samples;Min_cycle;Max_cycle;Signal;HPM_P1;HPM_P2
2023/08/01 00:00:26;;;;;;;3.50;2.58;;;;;;;22.12;56.63;94180.75;5120591;28;20211;-80
2023/08/01 00:02:52;;;;;;;3.22;2.40;;;;;;;22.08;56.96;94189.44;5119684;28;20211;-80
2023/08/01 00:05:19;;;;;;;3.13;2.40;;;;;;;22.10;57.17;94192.56;5122316;28;20786;-80
2023/08/01 00:07:45;;;;;;;3.33;2.70;;;;;;;22.14;56.38;94175.97;5122678;28;20227;-80
2023/08/01 00:10:11;;;;;;;2.75;2.45;;;;;;;22.17;55.81;94141.34;5120580;28;20222;-80
2023/08/01 00:12:39;;;;;;;4.93;2.53;;;;;;;22.16;55.75;94131.91;5122324;28;20217;-80
2023/08/01 00:15:07;;;;;;;2.70;2.50;;;;;;;22.17;55.58;94109.88;5122646;28;20214;-80
2023/08/01 00:17:34;;;;;;;3.95;2.28;;;;;;;22.20;55.26;94092.78;5120046;28;20210;-80
2023/08/01 00:20:01;;;;;;;3.40;2.60;;;;;;;22.18;55.52;94103.56;5117730;28;20223;-80
2023/08/01 00:22:27;;;;;;;3.33;2.60;;;;;;;22.14;55.39;94088.69;5121836;28;20221;-80
2023/08/01 00:24:53;;;;;;;3.35;2.45;;;;;;;22.12;54.97;94073.25;5121445;28;20211;-80
2023/08/01 00:27:20;;;;;;;3.55;2.45;;;;;;;22.13;54.59;94059.06;5119934;28;20219;-80
2023/08/01 00:29:48;;;;;;;2.50;2.30;;;;;;;22.14;54.41;94052.75;5107407;28;20227;-80
2023/08/01 00:32:14;;;;;;;3.25;2.63;;;;;;;22.10;54.50;94036.06;5102492;28;20210;-80
2023/08/01 00:34:41;;;;;;;2.53;2.33;;;;;;;22.13;54.46;94030.22;5119862;28;20203;-80
2023/08/01 00:37:07;;;;;;;3.10;2.63;;;;;;;22.12;54.55;94026.09;5112746;28;20272;-81
2023/08/01 00:39:33;;;;;;;4.20;2.53;;;;;;;22.18;54.53;94018.91;5100260;28;20227;-80
2023/08/01 00:42:00;;;;;;;2.70;2.40;;;;;;;22.20;54.38;94022.78;5100876;28;20336;-80
2023/08/01 00:44:26;;;;;;;3.20;2.53;;;;;;;22.16;55.07;94045.41;5105788;28;20195;-80
2023/08/01 00:46:54;;;;;;;2.35;2.10;;;;;;;22.17;54.88;94028.59;5121491;28;20218;-80
2023/08/01 00:49:21;;;;;;;2.53;2.28;;;;;;;22.13;55.18;94032.84;5110543;28;20244;-80
2023/08/01 00:51:48;;;;;;;2.83;2.35;;;;;;;22.12;54.92;94020.06;5115776;28;20210;-80
2023/08/01 00:54:15;;;;;;;3.17;2.67;;;;;;;22.08;55.16;94025.09;5120281;28;20203;-79
2023/08/01 00:56:41;;;;;;;2.83;2.60;;;;;;;22.04;55.44;94029.34;5120350;28;20210;-80
2023/08/01 00:59:07;;;;;;;3.45;2.90;;;;;;;21.95;55.36;94036.25;5111663;28;20204;-80
2023/08/01 01:01:34;;;;;;;3.13;2.40;;;;;;;21.98;55.52;94030.44;5100073;28;20210;-80
2023/08/01 01:04:02;;;;;;;2.72;2.50;;;;;;;21.96;55.55;94028.09;5098243;28;20200;-80
2023/08/01 01:06:35;;;;;;;3.05;2.75;;;;;;;22.01;55.44;94029.91;5116502;28;20288;-80
2023/08/01 01:09:04;;;;;;;2.97;2.40;;;;;;;21.97;56.37;94060.34;5110553;27;20223;-80
2023/08/01 01:11:31;;;;;;;2.78;2.50;;;;;;;21.91;55.94;94051.00;5098940;28;20200;-80
2023/08/01 01:13:56;;;;;;;2.97;2.38;;;;;;;21.93;55.99;94041.03;5098006;28;20208;-79
2023/08/01 01:16:23;;;;;;;2.92;2.60;;;;;;;21.97;55.97;94029.66;5099618;28;20196;-80
2023/08/01 01:18:49;;;;;;;3.10;2.67;;;;;;;21.88;56.38;94030.59;5101377;28;20196;-80
2023/08/01 01:21:17;;;;;;;2.60;2.40;;;;;;;21.90;56.16;94025.88;5099413;28;20200;-80
2023/08/01 01:23:44;;;;;;;3.10;2.80;;;;;;;21.87;56.27;94039.53;5115330;28;20207;-81
2023/08/01 01:26:12;;;;;;;3.95;2.33;;;;;;;21.86;56.61;94041.38;5119367;28;20207;-80
2023/08/01 01:28:39;;;;;;;3.35;2.40;;;;;;;21.89;56.47;94040.03;5100525;28;20211;-80
2023/08/01 01:31:06;;;;;;;4.13;2.70;;;;;;;21.90;56.62;94044.22;5107034;28;20286;-80
2023/08/01 01:33:34;;;;;;;2.75;2.55;;;;;;;21.89;56.35;94053.91;5118981;28;20222;-80
2023/08/01 01:36:01;;;;;;;2.80;2.60;;;;;;;21.89;56.63;94045.28;5107721;28;20211;-80
2023/08/01 01:38:29;;;;;;;3.50;2.40;;;;;;;21.89;56.61;94051.28;5099987;28;20202;-80
2023/08/01 01:40:55;;;;;;;3.13;2.33;;;;;;;21.88;56.83;94052.34;5112217;28;20227;-80
2023/08/01 01:43:22;;;;;;;6.72;2.83;;;;;;;21.81;57.06;94067.63;5121097;28;20199;-80
2023/08/01 01:45:47;;;;;;;3.25;2.67;;;;;;;21.84;57.36;94066.28;5120605;28;20192;-80
2023/08/01 01:48:13;;;;;;;2.80;2.60;;;;;;;21.86;57.60;94080.69;5121674;28;20225;-79
2023/08/01 01:50:40;;;;;;;2.50;2.25;;;;;;;21.86;58.08;94104.25;5100080;28;20220;-80
2023/08/01 01:53:06;;;;;;;3.08;2.78;;;;;;;21.85;58.39;94115.03;5099884;28;20204;-79
2023/08/01 01:55:34;;;;;;;3.25;2.63;;;;;;;21.84;58.75;94118.69;5109047;28;20200;-80
2023/08/01 01:58:00;;;;;;;3.03;2.60;;;;;;;21.84;58.92;94129.19;5117614;28;20231;-80
2023/08/01 02:00:27;;;;;;;2.95;2.65;;;;;;;21.86;59.59;94142.78;5101927;28;20219;-79
2023/08/01 02:02:53;;;;;;;2.50;2.30;;;;;;;21.86;60.21;94163.75;5098217;28;20199;-80
2023/08/01 02:05:20;;;;;;;2.92;2.55;;;;;;;21.83;60.58;94161.69;5109395;28;20696;-80
2023/08/01 02:07:46;;;;;;;3.53;2.40;;;;;;;21.83;60.23;94146.75;5118813;28;20219;-79
2023/08/01 02:10:12;;;;;;;2.67;2.47;;;;;;;21.82;60.62;94158.28;5119022;28;20219;-80
2023/08/01 02:12:40;;;;;;;4.72;2.83;;;;;;;21.85;60.90;94164.81;5117581;28;20272;-80
2023/08/01 02:15:08;;;;;;;2.80;2.50;;;;;;;21.81;61.36;94187.38;5119759;28;20207;-81
2023/08/01 02:17:34;;;;;;;3.95;2.60;;;;;;;21.78;61.87;94201.03;5116542;28;20195;-80
2023/08/01 02:20:00;;;;;;;2.78;2.53;;;;;;;21.76;62.77;94226.75;5116846;28;20266;-79
2023/08/01 02:22:27;;;;;;;2.70;2.50;;;;;;;21.79;62.03;94195.53;5119931;28;20207;-80
2023/08/01 02:24:53;;;;;;;3.55;2.72;;;;;;;21.82;61.95;94186.31;5112013;28;20211;-80
2023/08/01 02:27:20;;;;;;;3.17;2.88;;;;;;;21.83;62.22;94201.78;5103182;28;20679;-80
2023/08/01 02:29:49;;;;;;;2.65;2.45;;;;;;;21.87;61.92;94191.50;5113898;28;20226;-80
2023/08/01 02:32:16;;;;;;;3.47;3.17;;;;;;;21.88;62.45;94203.56;5098584;28;20257;-80
2023/08/01 02:34:42;;;;;;;4.65;3.10;;;;;;;21.86;63.18;94237.91;5098674;28;20573;-79
2023/08/01 02:37:09;;;;;;;3.75;3.08;;;;;;;21.85;63.63;94244.19;5096492;28;20204;-80
2023/08/01 02:39:35;;;;;;;4.30;3.00;;;;;;;21.81;63.92;94253.69;5098269;28;20211;-81
2023/08/01 02:42:02;;;;;;;3.15;2.75;;;;;;;21.81;63.89;94251.06;5098504;28;20204;-80
2023/08/01 02:44:29;;;;;;;5.07;2.70;;;;;;;21.73;65.55;94295.44;5111859;28;20192;-80
2023/08/01 02:46:57;;;;;;;3.63;2.70;;;;;;;21.71;65.53;94290.47;5119702;28;20214;-80
2023/08/01 02:49:23;;;;;;;2.95;2.53;;;;;;;21.68;65.95;94318.00;5110963;28;20219;-80
2023/08/01 02:51:50;;;;;;;4.35;2.88;;;;;;;21.70;65.71;94313.28;5098368;28;20200;-80
2023/08/01 02:54:16;;;;;;;3.50;2.83;;;;;;;21.67;67.08;94353.13;5098309;28;20211;-80
2023/08/01 02:56:43;;;;;;;3.03;2.72;;;;;;;21.68;67.62;94365.16;5098481;28;20203;-80
2023/08/01 02:59:10;;;;;;;2.92;2.60;;;;;;;21.68;67.32;94346.81;5101974;28;20210;-80
2023/08/01 03:01:36;;;;;;;3.30;2.80;;;;;;;21.64;68.86;94392.97;5117755;28;20207;-80
2023/08/01 03:04:05;;;;;;;2.70;2.50;;;;;;;21.60;68.68;94410.28;5119194;28;20203;-80
2023/08/01 03:06:31;;;;;;;4.20;2.97;;;;;;;21.60;70.31;94433.06;5119128;28;20230;-80
2023/08/01 03:08:58;;;;;;;2.78;2.58;;;;;;;21.60;70.22;94441.72;5105516;28;20218;-80
2023/08/01 03:11:24;;;;;;;4.38;3.00;;;;;;;21.49;73.00;94490.00;5099793;28;20211;-81
2023/08/01 03:13:51;;;;;;;3.35;3.05;;;;;;;21.50;72.00;94473.22;5099259;28;20216;-80
2023/08/01 03:16:17;;;;;;;3.33;3.00;;;;;;;21.45;72.45;94481.09;5117049;28;20203;-80
2023/08/01 03:18:44;;;;;;;4.00;2.92;;;;;;;21.43;71.38;94451.00;5113881;28;20211;-81
2023/08/01 03:21:12;;;;;;;3.30;3.00;;;;;;;21.36;73.44;94487.94;5104319;28;20208;-80
2023/08/01 03:23:40;;;;;;;4.00;2.90;;;;;;;21.40;74.14;94517.00;5113559;28;20199;-80
2023/08/01 03:26:06;;;;;;;3.10;2.72;;;;;;;21.34;74.84;94524.91;5120480;28;20649;-80
2023/08/01 03:28:32;;;;;;;2.95;2.75;;;;;;;21.31;75.25;94535.91;5119960;28;20220;-80
2023/08/01 03:30:59;;;;;;;3.40;3.10;;;;;;;21.32;74.72;94536.69;5118814;28;20242;-80
2023/08/01 03:33:26;;;;;;;2.97;2.60;;;;;;;21.30;75.38;94536.97;5114813;28;20208;-80
2023/08/01 03:35:52;;;;;;;2.88;2.67;;;;;;;21.28;76.55;94572.31;5113003;28;20200;-80
2023/08/01 03:38:20;;;;;;;3.13;2.83;;;;;;;21.14;77.08;94584.38;5097083;28;20203;-81
2023/08/01 03:40:47;;;;;;;3.75;2.42;;;;;;;21.11;74.08;94525.50;5098093;28;20231;-80
2023/08/01 03:43:14;;;;;;;3.25;2.85;;;;;;;21.09;75.31;94532.03;5097858;28;20200;-80
2023/08/01 03:45:40;;;;;;;3.97;2.90;;;;;;;21.07;73.31;94487.81;5112771;28;20222;-80
2023/08/01 03:48:07;;;;;;;3.42;3.00;;;;;;;21.04;73.52;94504.06;5111660;28;20241;-80
2023/08/01 03:50:33;;;;;;;3.88;3.42;;;;;;;21.00;73.92;94508.25;5114873;28;20243;-81
2023/08/01 03:52:59;;;;;;;4.07;2.95;;;;;;;21.00;73.44;94495.16;5096905;28;20196;-80
2023/08/01 03:55:27;;;;;;;4.55;3.25;;;;;;;20.98;74.67;94537.28;5097434;28;20207;-80
2023/08/01 03:57:53;;;;;;;3.60;3.30;;;;;;;20.98;75.30;94546.97;5098120;28;20202;-80
2023/08/01 04:00:20;;;;;;;3.53;3.20;;;;;;;20.95;76.29;94578.94;5116645;28;20218;-80
2023/08/01 04:02:46;;;;;;;4.18;3.22;;;;;;;20.93;77.22;94601.97;5099151;28;20211;-80
2023/08/01 04:05:13;;;;;;;3.50;2.90;;;;;;;20.86;77.65;94614.53;5111999;28;20221;-80
2023/08/01 04:07:39;;;;;;;3.50;2.92;;;;;;;20.87;77.74;94624.75;5116897;28;20206;-80
2023/08/01 04:10:07;;;;;;;4.25;3.22;;;;;;;20.81;79.31;94649.34;5116300;28;20246;-81
2023/08/01 04:12:35;;;;;;;3.85;3.30;;;;;;;20.81;78.25;94632.84;5109216;28;20203;-81
2023/08/01 04:15:01;;;;;;;3.88;3.30;;;;;;;20.81;78.37;94627.63;5119228;28;20234;-80
2023/08/01 04:17:29;;;;;;;4.63;3.40;;;;;;;20.84;78.22;94634.94;5114596;28;20195;-80
2023/08/01 04:19:56;;;;;;;4.05;3.20;;;;;;;20.76;79.26;94640.72;5112125;28;20650;-81
2023/08/01 04:22:22;;;;;;;3.50;3.20;;;;;;;20.75;81.22;94670.53;5104359;28;20214;-80
2023/08/01 04:24:48;;;;;;;3.90;3.30;;;;;;;20.64;84.31;94729.91;5113787;28;20210;-81
2023/08/01 04:27:15;;;;;;;3.90;3.50;;;;;;;20.62;83.44;94711.84;5116708;28;20196;-81
2023/08/01 04:29:42;;;;;;;6.18;3.38;;;;;;;20.58;86.53;94759.72;5093866;28;20247;-81
2023/08/01 04:32:12;;;;;;;7.00;3.22;;;;;;;20.51;86.63;94773.06;5091060;28;20203;-79
2023/08/01 04:34:39;;;;;;;5.05;3.20;;;;;;;20.67;85.99;94760.78;5090065;28;20195;-78
2023/08/01 04:37:05;;;;;;;3.90;3.50;;;;;;;20.76;85.50;94753.22;5110719;28;20203;-79
2023/08/01 04:39:31;;;;;;;5.18;3.67;;;;;;;20.80;84.70;94721.03;5115825;28;20219;-80
2023/08/01 04:41:58;;;;;;;5.28;3.65;;;;;;;20.67;85.27;94724.16;5116553;28;20199;-80
2023/08/01 04:44:24;;;;;;;3.78;3.30;;;;;;;20.71;84.42;94713.97;5116037;27;20188;-80
2023/08/01 04:46:53;;;;;;;4.20;3.80;;;;;;;20.69;83.35;94685.44;5116144;28;20732;-80
2023/08/01 04:49:19;;;;;;;4.03;3.35;;;;;;;20.66;83.34;94681.53;5115612;28;20228;-79
2023/08/01 04:51:46;;;;;;;5.75;3.38;;;;;;;20.79;82.84;94674.97;5115511;28;20207;-79
2023/08/01 04:54:12;;;;;;;4.22;3.72;;;;;;;20.79;81.77;94663.72;5116220;28;20812;-80
2023/08/01 04:56:38;;;;;;;5.65;3.85;;;;;;;20.73;83.43;94680.47;5116758;28;20233;-79
2023/08/01 04:59:05;;;;;;;3.95;3.55;;;;;;;20.70;83.09;94671.31;5113484;28;20200;-80
2023/08/01 05:01:32;;;;;;;6.13;3.70;;;;;;;20.60;83.96;94679.16;5115458;27;20264;-79
2023/08/01 05:03:59;;;;;;;4.55;3.67;;;;;;;20.58;83.97;94682.06;5116020;28;20208;-79
2023/08/01 05:06:27;;;;;;;4.53;3.55;;;;;;;20.57;84.37;94688.31;5114680;28;20207;-79
2023/08/01 05:08:54;;;;;;;4.30;3.65;;;;;;;20.52;84.92;94685.69;5111891;28;20220;-79
2023/08/01 05:11:20;;;;;;;4.38;3.60;;;;;;;20.55;84.93;94689.63;5114962;28;20226;-79
2023/08/01 05:13:47;;;;;;;5.43;3.85;;;;;;;20.53;85.72;94699.56;5113935;28;20256;-80
2023/08/01 05:16:13;;;;;;;5.55;3.92;;;;;;;20.49;87.13;94717.59;5114166;28;20199;-79
2023/08/01 05:18:40;;;;;;;6.28;4.03;;;;;;;20.43;86.57;94704.75;5115061;28;20203;-80
2023/08/01 05:21:07;;;;;;;4.25;3.78;;;;;;;20.47;86.56;94696.16;5114325;28;20231;-80
2023/08/01 05:23:34;;;;;;;5.15;3.90;;;;;;;20.43;86.95;94694.31;5113391;28;20199;-79
2023/08/01 05:26:00;;;;;;;4.20;3.53;;;;;;;20.40;87.79;94715.75;5114980;28;20207;-80
2023/08/01 05:28:26;;;;;;;5.28;4.53;;;;;;;20.32;89.51;94725.66;5108107;28;20700;-80
2023/08/01 05:30:53;;;;;;;4.85;3.63;;;;;;;20.38;86.81;94695.09;5093736;28;20224;-80
2023/08/01 05:33:19;;;;;;;4.40;3.72;;;;;;;20.30;85.00;94664.97;5094864;28;20200;-79
2023/08/01 05:35:46;;;;;;;4.05;3.70;;;;;;;20.25;84.56;94656.34;5095283;28;20204;-80
2023/08/01 05:38:13;;;;;;;4.20;3.80;;;;;;;20.22;84.65;94660.25;5093895;28;20207;-79
2023/08/01 05:40:40;;;;;;;4.43;3.40;;;;;;;20.13;85.17;94653.97;5098118;28;20227;-80
2023/08/01 05:43:08;;;;;;;5.30;4.28;;;;;;;20.10;85.50;94674.63;5115813;28;20210;-78
2023/08/01 05:45:34;;;;;;;7.93;7.20;;;;;;;20.12;86.62;94698.66;5114546;28;20191;-80
2023/08/01 05:48:01;;;;;;;5.38;4.40;;;;;;;20.15;86.63;94703.38;5115808;28;20207;-79
2023/08/01 05:50:27;;;;;;;3.95;3.55;;;;;;;20.14;85.47;94680.91;5116536;28;20219;-80
2023/08/01 05:52:54;;;;;;;4.00;3.50;;;;;;;20.01;85.76;94676.97;5115725;28;20214;-79
2023/08/01 05:55:22;;;;;;;4.03;3.47;;;;;;;20.07;86.02;94690.81;5116570;28;20200;-80
2023/08/01 05:57:52;;;;;;;4.72;3.80;;;;;;;20.00;84.85;94667.53;5115589;28;20410;-80
2023/08/01 06:00:19;;;;;;;4.05;3.65;;;;;;;20.04;85.02;94675.63;5116184;28;20637;-80
2023/08/01 06:02:45;;;;;;;6.38;3.47;;;;;;;20.07;85.04;94675.13;5117002;28;20205;-81
2023/08/01 06:05:12;;;;;;;4.22;3.20;;;;;;;19.98;83.77;94640.88;5107927;28;20199;-79
2023/08/01 06:07:38;;;;;;;4.45;3.28;;;;;;;19.94;83.10;94630.16;5115983;28;20195;-80
2023/08/01 06:10:05;;;;;;;4.20;3.28;;;;;;;19.97;83.64;94632.25;5116347;28;20283;-80
2023/08/01 06:12:33;;;;;;;5.40;3.35;;;;;;;19.95;82.68;94613.44;5114294;28;20214;-81
2023/08/01 06:14:59;;;;;;;3.30;3.00;;;;;;;19.93;83.39;94628.59;5114369;28;20211;-79
2023/08/01 06:17:26;;;;;;;3.72;2.95;;;;;;;19.99;83.02;94624.94;5116367;28;20199;-81
2023/08/01 06:19:54;;;;;;;4.03;3.28;;;;;;;20.04;82.91;94611.09;5115984;28;20230;-80
2023/08/01 06:22:21;;;;;;;4.03;3.63;;;;;;;20.05;82.18;94594.38;5114618;28;20218;-80
2023/08/01 06:24:47;;;;;;;4.55;3.42;;;;;;;20.07;82.54;94604.56;5116315;28;20199;-80
2023/08/01 06:27:14;;;;;;;5.78;3.90;;;;;;;19.97;80.34;94551.25;5115900;28;20572;-80
2023/08/01 06:29:42;;;;;;;6.15;4.97;;;;;;;20.04;80.55;94556.22;5104834;28;20230;-80
2023/08/01 06:32:09;;;;;;;4.82;3.55;;;;;;;20.08;80.60;94546.81;5116857;28;20200;-80
2023/08/01 06:34:35;;;;;;;3.67;3.33;;;;;;;20.08;78.56;94494.53;5116594;28;20673;-80
2023/08/01 06:37:01;;;;;;;4.97;3.38;;;;;;;20.12;78.20;94482.53;5114403;28;20200;-80
2023/08/01 06:39:28;;;;;;;4.82;3.28;;;;;;;20.05;76.05;94432.34;5115857;28;20215;-81
2023/08/01 06:41:54;;;;;;;3.35;3.05;;;;;;;20.11;75.24;94407.78;5115881;28;20207;-80
2023/08/01 06:44:21;;;;;;;3.53;3.00;;;;;;;20.08;74.95;94397.06;5115925;28;20299;-79
2023/08/01 06:46:48;;;;;;;4.45;2.92;;;;;;;20.14;74.45;94375.13;5114095;28;20203;-81
2023/08/01 06:49:15;;;;;;;3.80;3.50;;;;;;;20.22;74.11;94371.94;5115462;27;20227;-79
2023/08/01 06:51:42;;;;;;;3.47;3.17;;;;;;;20.31;72.61;94329.31;5115325;28;20214;-79
2023/08/01 06:54:09;;;;;;;2.97;2.78;;;;;;;20.25;71.04;94275.50;5115215;28;20199;-81
2023/08/01 06:56:35;;;;;;;4.88;3.47;;;;;;;20.21;70.57;94239.69;5116987;28;20203;-80
2023/08/01 06:59:02;;;;;;;3.40;3.10;;;;;;;20.13;69.47;94217.53;5119177;28;20196;-80
2023/08/01 07:01:28;;;;;;;3.75;2.90;;;;;;;20.08;68.90;94194.03;5113413;28;20196;-81
2023/08/01 07:03:56;;;;;;;3.45;2.92;;;;;;;20.16;69.40;94211.78;5120484;28;20203;-80
2023/08/01 07:06:23;;;;;;;2.85;2.65;;;;;;;20.21;68.66;94188.19;5119244;28;20276;-80
2023/08/01 07:08:50;;;;;;;3.38;3.05;;;;;;;20.31;68.15;94167.25;5119017;28;20222;-80
2023/08/01 07:11:16;;;;;;;4.07;2.83;;;;;;;20.32;67.86;94150.50;5118503;28;20223;-82
2023/08/01 07:13:43;;;;;;;2.90;2.67;;;;;;;20.44;67.52;94150.19;5116874;28;20595;-80
2023/08/01 07:16:09;;;;;;;3.15;2.80;;;;;;;20.40;66.46;94106.59;5117354;28;20199;-80
2023/08/01 07:18:36;;;;;;;3.28;2.67;;;;;;;20.33;65.74;94071.03;5115791;28;20646;-80
2023/08/01 07:21:05;;;;;;;3.60;3.00;;;;;;;20.28;65.64;94057.22;5117209;28;20234;-79
2023/08/01 07:23:34;;;;;;;2.83;2.60;;;;;;;20.34;65.94;94053.53;5115680;28;20226;-80
2023/08/01 07:26:00;;;;;;;3.30;2.38;;;;;;;20.32;65.32;94027.66;5106197;28;20200;-81
2023/08/01 07:28:27;;;;;;;4.65;2.50;;;;;;;20.37;64.92;94013.81;5095243;28;20200;-80
2023/08/01 07:30:59;;;;;;;3.25;2.75;;;;;;;20.26;64.83;94026.13;5096432;28;20219;-80
2023/08/01 07:33:26;;;;;;;3.47;2.80;;;;;;;20.20;64.68;94022.03;5096694;28;20196;-80
2023/08/01 07:35:52;;;;;;;5.53;3.10;;;;;;;20.26;64.66;94033.19;5116186;28;20285;-80
2023/08/01 07:38:20;;;;;;;4.38;2.67;;;;;;;20.15;63.86;93992.53;5116963;28;20618;-80
2023/08/01 07:40:47;;;;;;;3.20;2.90;;;;;;;20.18;63.72;93976.31;5117346;28;20215;-81
2023/08/01 07:43:13;;;;;;;3.13;2.83;;;;;;;20.21;63.21;93942.53;5115224;28;20199;-79
2023/08/01 07:45:40;;;;;;;3.40;2.60;;;;;;;20.24;63.13;93964.72;5117079;28;20230;-80
2023/08/01 07:48:06;;;;;;;3.60;2.70;;;;;;;20.34;62.86;93936.69;5116424;28;20496;-80
2023/08/01 07:50:32;;;;;;;5.63;2.58;;;;;;;20.43;62.83;93943.94;5113845;28;20593;-80
2023/08/01 07:52:59;;;;;;;4.55;2.75;;;;;;;20.49;62.65;93932.38;5114897;28;20199;-80
2023/08/01 07:55:27;;;;;;;3.22;2.83;;;;;;;20.53;61.84;93900.16;5117287;28;20204;-80
2023/08/01 07:57:53;;;;;;;3.33;3.03;;;;;;;20.62;62.06;93910.75;5116238;28;20202;-79
2023/08/01 08:00:20;;;;;;;4.53;2.88;;;;;;;20.77;61.90;93899.38;5115846;28;20208;-81
2023/08/01 08:02:47;;;;;;;3.15;2.85;;;;;;;20.80;62.43;93946.63;5116812;28;20200;-80
2023/08/01 08:05:13;;;;;;;2.90;2.70;;;;;;;20.88;62.61;93980.03;5116404;28;20226;-80
2023/08/01 08:07:40;;;;;;;9.57;8.48;;;;;;;20.99;64.05;94036.41;5116314;28;20336;-80
2023/08/01 08:10:07;;;;;;;7.53;6.82;;;;;;;21.03;62.44;93995.56;5124985;28;20227;-81
2023/08/01 08:12:35;;;;;;;2.92;2.72;;;;;;;21.15;63.51;94010.09;5124884;28;20199;-80
2023/08/01 08:15:02;;;;;;;3.33;2.72;;;;;;;21.31;63.55;94014.09;5123498;28;20628;-81
2023/08/01 08:17:28;;;;;;;4.38;2.83;;;;;;;21.51;63.14;94015.69;5123007;28;20206;-79
2023/08/01 08:19:54;;;;;;;2.70;2.45;;;;;;;21.61;61.15;93918.59;5123866;27;20754;-81
2023/08/01 08:22:21;;;;;;;4.10;3.03;;;;;;;21.73;61.13;93923.44;5121604;28;20202;-81
2023/08/01 08:24:48;;;;;;;6.85;2.78;;;;;;;21.86;61.45;93947.03;5120478;28;20207;-80
2023/08/01 08:27:14;;;;;;;2.92;2.70;;;;;;;22.06;60.33;93904.03;5100366;28;20200;-81
2023/08/01 08:29:42;;;;;;;2.67;2.47;;;;;;;22.14;60.14;93886.84;5100054;28;20227;-80
2023/08/01 08:32:08;;;;;;;3.85;3.38;;;;;;;22.12;60.23;93897.63;5100995;28;20247;-79
2023/08/01 08:34:35;;;;;;;3.58;2.90;;;;;;;22.14;60.41;93895.47;5100416;28;20200;-79
2023/08/01 08:37:01;;;;;;;3.03;2.63;;;;;;;22.14;60.59;93910.41;5099267;28;20211;-80
2023/08/01 08:39:28;;;;;;;3.70;2.97;;;;;;;22.15;60.40;93893.63;5114316;28;20218;-81
2023/08/01 08:41:54;;;;;;;3.20;2.90;;;;;;;22.28;60.65;93924.34;5121251;28;20610;-80
2023/08/01 08:44:21;;;;;;;2.90;2.70;;;;;;;22.23;60.17;93899.00;5120032;28;20230;-80
2023/08/01 08:46:51;;;;;;;3.70;2.88;;;;;;;22.10;60.21;93898.97;5120803;28;20202;-80
2023/08/01 08:49:19;;;;;;;4.25;3.28;;;;;;;22.06;60.39;93911.88;5120105;28;20215;-80
2023/08/01 08:51:46;;;;;;;3.72;3.40;;;;;;;22.13;61.25;93959.44;5119594;28;20248;-81
2023/08/01 08:54:14;;;;;;;4.93;2.95;;;;;;;22.15;60.83;93946.06;5118744;28;20205;-80
2023/08/01 08:56:41;;;;;;;3.78;2.95;;;;;;;22.15;60.64;93951.31;5121030;28;20210;-81
2023/08/01 08:59:09;;;;;;;3.85;2.90;;;;;;;21.93;60.65;93938.81;5120260;28;20260;-80
2023/08/01 09:01:36;;;;;;;4.00;2.95;;;;;;;21.96;60.31;93927.75;5121996;28;20199;-80
2023/08/01 09:04:04;;;;;;;3.88;2.78;;;;;;;21.97;60.25;93913.56;5121136;28;20207;-80
2023/08/01 09:06:33;;;;;;;3.63;3.05;;;;;;;21.92;60.69;93937.25;5120131;28;20218;-81
2023/08/01 09:09:05;;;;;;;3.20;2.85;;;;;;;21.76;60.65;93920.97;5120601;28;20195;-80
2023/08/01 09:11:40;;;;;;;3.45;2.95;;;;;;;21.78;60.68;93926.72;5117637;28;20284;-80
2023/08/01 09:14:07;;;;;;;3.08;2.80;;;;;;;21.86;61.32;93944.41;5119714;28;20249;-79
2023/08/01 09:16:34;;;;;;;3.53;3.10;;;;;;;21.83;60.54;93923.25;5119444;28;20230;-79
2023/08/01 09:19:00;;;;;;;3.50;3.20;;;;;;;21.90;60.93;93944.63;5118106;27;20211;-80
2023/08/01 09:21:33;;;;;;;4.53;3.00;;;;;;;21.97;60.28;93929.28;5118663;28;20202;-80
2023/08/01 09:24:08;;;;;;;4.70;3.25;;;;;;;21.99;60.07;93929.78;5099141;28;20235;-81
2023/08/01 09:26:35;;;;;;;3.10;2.80;;;;;;;22.11;60.24;93939.88;5111234;28;20195;-81
2023/08/01 09:29:01;;;;;;;3.53;2.78;;;;;;;22.07;59.69;93921.31;5119222;28;20211;-81
2023/08/01 09:31:29;;;;;;;3.15;2.83;;;;;;;21.99;60.52;93961.25;5118557;28;20223;-80
2023/08/01 09:33:56;;;;;;;3.28;2.97;;;;;;;21.88;60.17;93938.91;5118084;28;20199;-80
2023/08/01 09:36:23;;;;;;;3.70;3.40;;;;;;;21.89;60.65;93962.19;5118705;28;20199;-81
2023/08/01 09:38:51;;;;;;;6.30;5.70;;;;;;;21.90;60.59;93970.84;5116763;28;20215;-79
2023/08/01 09:41:18;;;;;;;3.90;3.50;;;;;;;21.96;60.94;93991.41;5118977;28;20223;-81
2023/08/01 09:43:46;;;;;;;5.25;3.22;;;;;;;22.02;61.20;93990.31;5116154;28;20223;-79
2023/08/01 09:46:13;;;;;;;3.40;3.10;;;;;;;22.01;60.72;93996.63;5117416;28;20224;-81
2023/08/01 09:48:41;;;;;;;5.55;4.22;;;;;;;22.05;61.19;93994.19;5109795;28;20210;-79
2023/08/01 09:51:09;;;;;;;3.88;3.00;;;;;;;22.09;61.50;94012.75;5116958;28;20219;-80
2023/08/01 09:53:37;;;;;;;3.58;3.28;;;;;;;21.94;60.60;93972.56;5117128;28;20320;-80
2023/08/01 09:56:05;;;;;;;3.45;3.15;;;;;;;21.87;60.00;93935.50;5116780;28;20813;-80
2023/08/01 09:58:35;;;;;;;3.75;2.95;;;;;;;21.63;59.32;93924.34;5114133;28;20226;-81
2023/08/01 10:01:02;;;;;;;3.63;3.30;;;;;;;21.61;59.85;93927.25;5117097;28;20282;-81
2023/08/01 10:03:29;;;;;;;3.28;2.97;;;;;;;21.60;59.52;93948.47;5122035;28;20202;-79
2023/08/01 10:05:56;;;;;;;3.55;3.20;;;;;;;21.60;60.39;93983.31;5118281;28;20195;-80
2023/08/01 10:08:23;;;;;;;3.30;3.00;;;;;;;21.43;60.15;93979.63;5117687;28;20199;-79
2023/08/01 10:10:52;;;;;;;3.40;3.00;;;;;;;21.45;60.40;94001.09;5120391;28;20304;-79
2023/08/01 10:13:23;;;;;;;4.20;3.35;;;;;;;21.30;60.06;93981.13;5118189;28;20248;-79
2023/08/01 10:15:51;;;;;;;4.63;3.00;;;;;;;21.30;59.83;93978.50;5120552;28;20207;-81
2023/08/01 10:18:18;;;;;;;4.55;3.10;;;;;;;21.13;60.14;93978.19;5120810;28;20227;-79
2023/08/01 10:20:45;;;;;;;4.68;2.90;;;;;;;21.02;61.31;94075.13;5116772;28;20630;-81
2023/08/01 10:23:12;;;;;;;3.30;3.00;;;;;;;20.90;62.01;94047.78;5117468;28;20245;-80
2023/08/01 10:25:40;;;;;;;3.28;2.80;;;;;;;20.91;63.81;94140.94;5121465;28;20199;-82
2023/08/01 10:28:08;;;;;;;5.80;3.25;;;;;;;20.66;67.95;94275.31;5119446;28;20214;-81
2023/08/01 10:30:36;;;;;;;4.63;3.03;;;;;;;20.39;72.38;94396.00;5118231;28;20223;-80
2023/08/01 10:33:03;;;;;;;4.53;3.00;;;;;;;20.28;73.80;94421.34;5117350;28;20226;-81
2023/08/01 10:35:36;;;;;;;4.68;3.42;;;;;;;20.24;74.44;94430.75;5118497;28;20199;-81
2023/08/01 10:38:07;;;;;;;6.55;5.15;;;;;;;20.06;75.64;94451.44;5119960;28;20229;-81
2023/08/01 10:40:41;;;;;;;3.83;3.40;;;;;;;20.02;74.53;94417.19;5118911;28;20219;-80
2023/08/01 10:43:19;;;;;;;3.35;3.05;;;;;;;20.05;74.92;94406.22;5118760;28;20248;-80
2023/08/01 10:45:47;;;;;;;5.40;3.30;;;;;;;20.13;74.01;94390.00;5116651;28;20207;-80
2023/08/01 10:48:13;;;;;;;5.63;3.47;;;;;;;20.17;76.07;94438.09;5113112;27;20253;-80
2023/08/01 10:50:41;;;;;;;3.97;3.28;;;;;;;20.19;75.31;94415.09;5114275;28;20277;-81
2023/08/01 10:53:09;;;;;;;4.22;2.80;;;;;;;20.23;74.91;94400.44;5119220;28;20200;-79
2023/08/01 10:55:43;;;;;;;5.32;2.90;;;;;;;20.32;74.89;94395.47;5118081;28;20206;-79
2023/08/01 10:58:10;;;;;;;4.15;3.10;;;;;;;20.36;73.91;94357.28;5118594;28;20194;-80
2023/08/01 11:00:36;;;;;;;3.20;2.90;;;;;;;20.44;73.49;94338.44;5130729;27;20218;-80
2023/08/01 11:03:05;;;;;;;3.30;3.00;;;;;;;20.40;71.79;94271.28;5134095;27;20198;-81
2023/08/01 11:05:31;;;;;;;3.20;2.90;;;;;;;20.35;71.83;94270.22;5118255;28;20219;-80
2023/08/01 11:07:59;;;;;;;3.50;2.53;;;;;;;20.27;70.80;94249.88;5117124;28;20195;-83
2023/08/01 11:10:28;;;;;;;2.72;2.35;;;;;;;20.14;71.01;94266.13;5115516;28;20628;-83
2023/08/01 11:12:54;;;;;;;2.40;2.20;;;;;;;20.21;71.49;94276.28;5117743;28;20203;-81
2023/08/01 11:15:21;;;;;;;4.03;1.95;;;;;;;20.20;71.85;94288.59;5117849;28;20211;-81
2023/08/01 11:17:49;;;;;;;4.75;2.10;;;;;;;20.24;73.56;94359.41;5116915;28;20199;-80
2023/08/01 11:20:18;;;;;;;2.72;2.15;;;;;;;20.29;73.06;94354.16;5114832;28;20226;-81
2023/08/01 11:22:54;;;;;;;2.53;2.33;;;;;;;20.31;71.94;94324.09;5113553;28;20861;-80
2023/08/01 11:25:31;;;;;;;2.25;2.05;;;;;;;20.30;71.97;94321.75;5094892;28;20240;-81
2023/08/01 11:27:58;;;;;;;2.15;1.95;;;;;;;20.37;71.50;94311.81;5097204;28;20627;-80
2023/08/01 11:30:31;;;;;;;2.22;2.03;;;;;;;20.35;72.03;94337.41;5093981;28;20231;-82
2023/08/01 11:32:57;;;;;;;2.83;1.90;;;;;;;20.31;71.65;94333.75;5094788;28;20196;-80